Time;durP1;ratioP1;P1;durP2;ratioP2;P2;SDS_P1;SDS_P2;PMS_P1;PMS_P2;Temp;Humidity;BMP_temperature;BMP_pressure;BME280_temperature;BME280_humidity;BME280_pressure;Samples;Min_cycle;Max_cycle;Signal;HPM_P1;HPM_P2
2023/07/01 00:00:59;;;;;;;1.50;1.42;;;;;;;13.53;100.00;90717.63;5031873;28;20026;-65
2023/07/01 00:03:24;;;;;;;1.70;1.60;;;;;;;13.47;100.00;90725.88;5031705;28;20044;-65
2023/07/01 00:05:50;;;;;;;1.42;1.35;;;;;;;13.42;100.00;90717.28;5032007;28;20045;-65
2023/07/01 00:08:15;;;;;;;2.05;1.35;;;;;;;13.35;100.00;90712.47;5032012;28;20083;-65
2023/07/01 00:10:41;;;;;;;1.50;1.40;;;;;;;13.27;100.00;90702.66;5031751;28;20423;-65
2023/07/01 00:13:06;;;;;;;0.95;0.95;;;;;;;13.28;100.00;90696.22;5031901;28;20029;-65
2023/07/01 00:15:33;;;;;;;0.90;0.90;;;;;;;13.27;100.00;90708.00;5032623;28;20025;-65
2023/07/01 00:17:58;;;;;;;1.05;1.02;;;;;;;13.31;100.00;90705.44;5036393;28;20104;-65
2023/07/01 00:20:26;;;;;;;0.98;0.98;;;;;;;13.28;100.00;90701.56;5035946;28;20060;-65
2023/07/01 00:22:53;;;;;;;0.90;0.90;;;;;;;13.38;100.00;90703.78;5035585;28;20476;-65
2023/07/01 00:25:19;;;;;;;1.25;1.20;;;;;;;13.36;100.00;90702.56;5035670;28;20041;-65
2023/07/01 00:27:44;;;;;;;1.30;1.30;;;;;;;13.34;100.00;90705.56;5035748;28;20025;-65
2023/07/01 00:30:10;;;;;;;1.38;1.33;;;;;;;13.31;100.00;90708.91;5035609;28;20121;-65
2023/07/01 00:32:36;;;;;;;0.95;0.95;;;;;;;13.21;100.00;90711.19;5035593;28;20029;-65
2023/07/01 00:35:01;;;;;;;5.55;1.75;;;;;;;13.17;100.00;90706.50;5035541;28;20029;-65
2023/07/01 00:37:27;;;;;;;0.90;0.90;;;;;;;13.06;100.00;90704.53;5035749;28;20021;-65
2023/07/01 00:39:53;;;;;;;0.70;0.70;;;;;;;13.09;100.00;90709.22;5035474;28;20029;-65
2023/07/01 00:42:18;;;;;;;1.38;1.27;;;;;;;13.05;100.00;90709.09;5035577;28;20033;-65
2023/07/01 00:44:44;;;;;;;1.20;1.20;;;;;;;13.04;100.00;90706.78;5035200;28;20041;-65
2023/07/01 00:47:10;;;;;;;1.02;1.02;;;;;;;13.06;100.00;90705.31;5035099;28;20069;-65
2023/07/01 00:49:37;;;;;;;0.85;0.80;;;;;;;13.09;100.00;90703.88;5035085;28;20580;-65
2023/07/01 00:52:03;;;;;;;0.80;0.80;;;;;;;13.05;100.00;90703.75;5035426;28;20064;-65
2023/07/01 00:54:29;;;;;;;2.67;1.23;;;;;;;13.08;100.00;90695.09;5035111;28;20434;-65
2023/07/01 00:56:55;;;;;;;0.90;0.90;;;;;;;13.14;100.00;90695.69;5035082;28;20030;-65
2023/07/01 00:59:20;;;;;;;0.90;0.90;;;;;;;13.14;100.00;90691.13;5035211;28;20025;-65
2023/07/01 01:01:49;;;;;;;0.93;0.93;;;;;;;13.22;100.00;90686.81;5035184;28;20029;-65
2023/07/01 01:04:34;;;;;;;1.65;1.55;;;;;;;13.16;100.00;90690.78;5033435;28;20030;-65
2023/07/01 01:07:16;;;;;;;0.88;0.88;;;;;;;13.18;100.00;90691.28;5034767;28;20049;-65
2023/07/01 01:09:48;;;;;;;1.33;1.33;;;;;;;13.14;100.00;90685.78;5035250;28;20021;-65
2023/07/01 01:12:14;;;;;;;1.05;1.05;;;;;;;13.10;100.00;90684.09;5034973;28;20026;-65
2023/07/01 01:14:42;;;;;;;1.00;1.00;;;;;;;13.07;100.00;90690.09;5034765;28;20076;-65
2023/07/01 01:17:12;;;;;;;0.80;0.80;;;;;;;13.09;100.00;90683.31;5034977;28;20033;-65
2023/07/01 01:19:43;;;;;;;1.38;1.27;;;;;;;13.12;100.00;90684.56;5034610;28;20060;-65
2023/07/01 01:22:25;;;;;;;0.82;0.82;;;;;;;13.08;100.00;90684.41;5034663;28;20083;-65
2023/07/01 01:24:54;;;;;;;0.80;0.80;;;;;;;13.05;100.00;90681.63;5035121;28;20481;-65
2023/07/01 01:27:36;;;;;;;1.02;1.00;;;;;;;12.96;100.00;90683.63;5034074;28;20029;-65
2023/07/01 01:30:01;;;;;;;0.80;0.80;;;;;;;12.93;100.00;90674.34;5034234;28;20048;-65
2023/07/01 01:32:26;;;;;;;0.90;0.90;;;;;;;12.92;100.00;90683.47;5034580;28;20084;-65
2023/07/01 01:34:52;;;;;;;1.00;1.00;;;;;;;12.86;100.00;90671.44;5034413;28;20567;-65
2023/07/01 01:37:29;;;;;;;1.33;1.23;;;;;;;12.88;100.00;90670.00;5034413;28;20038;-65
2023/07/01 01:40:09;;;;;;;0.90;0.90;;;;;;;12.91;100.00;90671.22;5034297;28;20025;-65
2023/07/01 01:42:37;;;;;;;0.80;0.80;;;;;;;12.98;100.00;90665.38;5034322;28;20376;-65
2023/07/01 01:45:04;;;;;;;1.42;1.38;;;;;;;13.00;100.00;90665.81;5034237;28;20033;-65
2023/07/01 01:47:30;;;;;;;0.90;0.90;;;;;;;12.98;100.00;90660.03;5034089;28;20037;-65
2023/07/01 01:50:01;;;;;;;2.90;1.73;;;;;;;13.00;100.00;90665.81;5033924;28;20021;-65
2023/07/01 01:52:28;;;;;;;0.80;0.80;;;;;;;13.04;100.00;90672.06;5034238;28;20033;-65
2023/07/01 01:54:56;;;;;;;1.63;1.52;;;;;;;13.05;100.00;90662.94;5034310;28;20090;-65
2023/07/01 01:57:21;;;;;;;1.17;1.15;;;;;;;13.09;100.00;90666.50;5034216;28;20098;-65
2023/07/01 01:59:47;;;;;;;1.02;1.02;;;;;;;13.15;100.00;90665.19;5033934;28;20025;-65
2023/07/01 02:02:12;;;;;;;2.25;1.73;;;;;;;13.12;100.00;90660.53;5034177;28;20111;-65
2023/07/01 02:04:38;;;;;;;1.00;1.00;;;;;;;13.17;100.00;90657.63;5033749;28;20406;-65
2023/07/01 02:07:04;;;;;;;0.93;0.93;;;;;;;13.12;100.00;90650.63;5033914;28;20518;-65
2023/07/01 02:09:29;;;;;;;1.00;1.00;;;;;;;13.08;100.00;90660.38;5033757;28;20131;-65
2023/07/01 02:11:55;;;;;;;1.80;1.33;;;;;;;13.06;100.00;90651.13;5033588;28;20542;-65
2023/07/01 02:14:21;;;;;;;1.70;1.15;;;;;;;13.00;100.00;90647.13;5033895;28;20569;-65
2023/07/01 02:16:47;;;;;;;2.00;1.90;;;;;;;12.96;100.00;90647.00;5033650;28;20030;-65
2023/07/01 02:19:12;;;;;;;1.25;1.20;;;;;;;12.96;100.00;90646.22;5033771;28;20044;-65
2023/07/01 02:21:38;;;;;;;1.20;1.10;;;;;;;12.98;100.00;90655.47;5033583;28;20421;-65
2023/07/01 02:24:04;;;;;;;1.27;0.90;;;;;;;13.02;100.00;90661.69;5033366;28;20029;-65
2023/07/01 02:26:29;;;;;;;1.52;1.42;;;;;;;13.05;100.00;90663.72;5033719;28;20060;-65
2023/07/01 02:28:55;;;;;;;1.02;1.02;;;;;;;12.99;100.00;90650.91;5033564;28;20491;-64
2023/07/01 02:31:20;;;;;;;2.05;1.08;;;;;;;13.00;100.00;90655.91;5033553;28;20029;-65
2023/07/01 02:33:46;;;;;;;1.20;1.17;;;;;;;12.99;100.00;90645.56;5033237;28;20469;-65
2023/07/01 02:36:11;;;;;;;1.10;1.08;;;;;;;12.94;100.00;90651.09;5183450;22;20144;-66
2023/07/01 02:38:36;;;;;;;2.67;2.03;;;;;;;12.89;100.00;90650.19;5052310;28;20028;-67
2023/07/01 02:41:02;;;;;;;1.80;1.70;;;;;;;12.81;100.00;90661.75;5053510;28;20025;-66
2023/07/01 02:43:27;;;;;;;0.95;0.95;;;;;;;12.75;100.00;90652.38;5053439;28;20035;-66
2023/07/01 02:45:53;;;;;;;0.95;0.95;;;;;;;12.73;100.00;90654.59;5052895;28;20032;-66
2023/07/01 02:48:18;;;;;;;1.45;1.35;;;;;;;12.66;100.00;90670.38;5053145;28;20096;-66
2023/07/01 02:50:43;;;;;;;1.10;1.10;;;;;;;12.60;100.00;90661.75;5052912;28;20505;-66
2023/07/01 02:53:09;;;;;;;1.00;0.93;;;;;;;12.56;100.00;90660.06;5053493;28;20103;-66
2023/07/01 02:55:35;;;;;;;1.05;1.05;;;;;;;12.51;100.00;90655.72;5052734;28;20116;-66
2023/07/01 02:58:00;;;;;;;1.88;1.48;;;;;;;12.49;100.00;90663.28;5052816;28;20059;-66
2023/07/01 03:00:26;;;;;;;1.13;1.13;;;;;;;12.54;100.00;90660.41;5052869;28;20143;-66
2023/07/01 03:02:52;;;;;;;1.73;1.63;;;;;;;12.51;100.00;90662.94;5052699;28;20482;-66
2023/07/01 03:05:23;;;;;;;0.95;0.95;;;;;;;12.44;100.00;90660.78;5052801;28;20110;-66
2023/07/01 03:07:48;;;;;;;1.25;1.17;;;;;;;12.40;100.00;90661.78;5052898;28;20604;-66
2023/07/01 03:10:14;;;;;;;0.90;0.90;;;;;;;12.30;100.00;90658.38;5052793;28;20100;-66
2023/07/01 03:12:40;;;;;;;1.73;1.63;;;;;;;12.25;100.00;90658.56;5052636;28;20032;-66
2023/07/01 03:15:06;;;;;;;1.05;1.05;;;;;;;12.28;100.00;90654.47;5052402;28;20044;-66
2023/07/01 03:17:31;;;;;;;1.20;1.10;;;;;;;12.30;100.00;90655.72;5052623;28;20159;-66
2023/07/01 03:19:57;;;;;;;0.82;0.82;;;;;;;12.37;100.00;90657.09;5052585;28;20082;-66
2023/07/01 03:22:22;;;;;;;1.13;1.13;;;;;;;12.36;100.00;90663.53;5052346;28;20383;-66
2023/07/01 03:24:48;;;;;;;1.77;1.13;;;;;;;12.27;100.00;90660.91;5052260;28;20032;-66
2023/07/01 03:27:13;;;;;;;1.55;1.45;;;;;;;12.27;100.00;90659.03;5052254;28;20506;-66
2023/07/01 03:29:39;;;;;;;1.13;1.02;;;;;;;12.33;100.00;90656.97;5052205;28;20042;-66
2023/07/01 03:32:05;;;;;;;1.13;1.13;;;;;;;12.39;100.00;90653.00;5052237;28;20450;-66
2023/07/01 03:34:30;;;;;;;1.80;1.70;;;;;;;12.51;100.00;90652.28;5051806;28;20501;-67
2023/07/01 03:36:56;;;;;;;1.52;1.20;;;;;;;12.60;100.00;90650.31;5052208;28;20041;-66
2023/07/01 03:39:21;;;;;;;0.90;0.90;;;;;;;12.66;100.00;90650.91;5052089;28;20074;-66
2023/07/01 03:41:47;;;;;;;1.20;1.20;;;;;;;12.71;100.00;90653.34;5052156;28;20040;-66
2023/07/01 03:44:12;;;;;;;1.55;1.45;;;;;;;12.89;100.00;90658.22;5052170;28;20025;-66
2023/07/01 03:46:38;;;;;;;1.38;1.35;;;;;;;13.06;100.00;90659.94;5051938;28;20028;-66
2023/07/01 03:49:03;;;;;;;1.00;1.00;;;;;;;13.12;100.00;90660.53;5051934;28;20421;-66
2023/07/01 03:51:30;;;;;;;1.00;1.00;;;;;;;13.07;100.00;90664.16;5051730;28;20044;-66
2023/07/01 03:53:55;;;;;;;1.65;1.55;;;;;;;13.14;100.00;90675.09;5052114;28;20037;-66
2023/07/01 03:56:21;;;;;;;1.48;1.38;;;;;;;13.16;100.00;90672.09;5051803;28;20491;-66
2023/07/01 03:58:47;;;;;;;1.52;1.42;;;;;;;13.21;100.00;90668.47;5051876;28;20083;-66
2023/07/01 04:01:16;;;;;;;2.53;1.75;;;;;;;13.24;100.00;90657.88;5052044;28;20029;-66
2023/07/01 04:03:42;;;;;;;3.00;1.17;;;;;;;13.34;100.00;90662.03;5052242;28;20410;-66
2023/07/01 04:06:07;;;;;;;2.10;1.90;;;;;;;13.35;100.00;90663.59;5051702;28;20032;-66
2023/07/01 04:08:33;;;;;;;1.45;0.95;;;;;;;13.48;100.00;90657.94;5051719;28;20550;-66
2023/07/01 04:10:59;;;;;;;1.10;1.10;;;;;;;13.55;100.00;90662.72;5051745;28;20112;-66
2023/07/01 04:13:24;;;;;;;1.27;1.20;;;;;;;13.63;100.00;90669.88;5051658;28;20033;-66
2023/07/01 04:15:50;;;;;;;1.73;1.38;;;;;;;13.71;100.00;90665.53;5051849;28;20059;-66
2023/07/01 04:18:16;;;;;;;1.30;1.23;;;;;;;13.86;100.00;90666.75;5051665;28;20029;-66
2023/07/01 04:20:41;;;;;;;1.42;1.35;;;;;;;14.00;100.00;90657.28;5051855;28;20413;-66
2023/07/01 04:23:06;;;;;;;2.00;1.80;;;;;;;14.14;100.00;90658.84;5051914;28;20083;-66
2023/07/01 04:25:32;;;;;;;9.30;2.15;;;;;;;14.25;100.00;90651.94;5051985;28;20060;-66
2023/07/01 04:27:57;;;;;;;2.25;2.15;;;;;;;14.35;100.00;90656.78;5051564;28;20021;-66
2023/07/01 04:30:23;;;;;;;0.95;0.95;;;;;;;14.51;100.00;90657.69;5051603;28;20037;-66
2023/07/01 04:32:49;;;;;;;3.30;1.42;;;;;;;14.58;100.00;90657.13;5051769;28;20025;-66
2023/07/01 04:35:15;;;;;;;1.60;1.50;;;;;;;14.76;100.00;90660.31;5051500;28;20094;-66
2023/07/01 04:37:40;;;;;;;2.55;1.33;;;;;;;14.96;100.00;90667.38;5051540;28;20521;-66
2023/07/01 04:40:06;;;;;;;2.30;2.10;;;;;;;15.14;100.00;90649.88;5051607;28;20029;-66
2023/07/01 04:42:34;;;;;;;7.15;2.88;;;;;;;15.25;100.00;90650.94;5051778;28;20059;-66
2023/07/01 04:45:00;;;;;;;8.70;1.85;;;;;;;15.44;100.00;90654.84;5051437;28;20029;-66
2023/07/01 04:47:25;;;;;;;2.83;1.10;;;;;;;15.54;100.00;90651.66;5051447;28;20061;-66
2023/07/01 04:49:52;;;;;;;1.20;1.20;;;;;;;15.71;100.00;90651.34;5051281;28;20056;-66
2023/07/01 04:52:22;;;;;;;1.10;1.10;;;;;;;15.88;100.00;90640.28;5051789;28;20455;-66
2023/07/01 04:54:48;;;;;;;1.55;1.48;;;;;;;16.09;100.00;90641.88;5051242;28;20036;-67
2023/07/01 04:57:15;;;;;;;1.55;1.45;;;;;;;16.25;100.00;90641.88;5051424;28;20093;-66
2023/07/01 04:59:40;;;;;;;1.20;1.20;;;;;;;16.38;100.00;90641.41;5051580;28;20036;-67
2023/07/01 05:02:05;;;;;;;1.10;1.10;;;;;;;16.54;100.00;90643.28;5052674;28;20029;-67
2023/07/01 05:04:31;;;;;;;1.25;1.25;;;;;;;16.69;100.00;90639.78;5055482;28;20033;-67
2023/07/01 05:06:57;;;;;;;1.52;1.38;;;;;;;16.86;100.00;90646.66;5055226;28;20108;-67
2023/07/01 05:09:22;;;;;;;1.20;1.17;;;;;;;17.04;100.00;90643.22;5055147;28;20021;-67
2023/07/01 05:11:47;;;;;;;1.50;1.40;;;;;;;17.17;100.00;90643.03;5054877;28;20494;-67
2023/07/01 05:14:13;;;;;;;1.27;1.17;;;;;;;17.37;100.00;90649.97;5054963;28;20107;-67
2023/07/01 05:16:38;;;;;;;1.70;1.50;;;;;;;17.55;100.00;90651.06;5055092;28;20039;-65
2023/07/01 05:19:04;;;;;;;1.83;1.20;;;;;;;17.65;100.00;90653.16;5055014;28;20100;-67
2023/07/01 05:21:30;;;;;;;1.63;1.52;;;;;;;17.91;100.00;90657.09;5054872;28;20072;-67
2023/07/01 05:23:55;;;;;;;13.07;2.22;;;;;;;18.15;100.00;90654.03;5054877;28;20057;-67
2023/07/01 05:26:21;;;;;;;1.25;1.25;;;;;;;18.38;100.00;90645.13;5054433;28;20435;-67
2023/07/01 05:28:46;;;;;;;1.58;1.48;;;;;;;18.68;100.00;90643.28;5054480;28;20036;-67
2023/07/01 05:31:12;;;;;;;2.80;2.15;;;;;;;18.89;100.00;90650.06;5054590;28;20032;-67
2023/07/01 05:33:37;;;;;;;1.98;1.73;;;;;;;19.06;100.00;90649.53;5054414;28;20065;-67
2023/07/01 05:36:03;;;;;;;2.40;1.48;;;;;;;19.32;100.00;90656.78;5054125;28;20071;-67
2023/07/01 05:38:28;;;;;;;2.67;1.67;;;;;;;19.54;100.00;90653.19;5054310;28;20410;-67
2023/07/01 05:40:53;;;;;;;1.60;1.50;;;;;;;19.86;100.00;90664.31;5054473;28;20048;-67
2023/07/01 05:43:19;;;;;;;1.33;1.33;;;;;;;20.03;100.00;90668.31;5054228;28;20471;-67
2023/07/01 05:45:44;;;;;;;2.70;1.80;;;;;;;20.18;100.00;90669.22;5054152;28;20021;-67
2023/07/01 05:48:09;;;;;;;1.63;1.50;;;;;;;20.44;100.00;90663.69;5054082;28;20482;-67
2023/07/01 05:50:35;;;;;;;1.98;1.75;;;;;;;21.44;100.00;90658.84;5054505;28;20025;-67
2023/07/01 05:53:00;;;;;;;2.72;1.70;;;;;;;25.19;100.00;90660.09;5052678;28;20060;-67
2023/07/01 05:55:25;;;;;;;6.00;3.20;;;;;;;28.03;70.07;90654.22;5053995;28;20024;-67
2023/07/01 05:57:51;;;;;;;2.90;2.70;;;;;;;30.90;51.53;90661.66;5054012;28;20490;-67
2023/07/01 06:00:16;;;;;;;3.10;2.55;;;;;;;32.66;45.73;90665.41;5053985;28;20079;-68
2023/07/01 06:02:42;;;;;;;1.50;1.42;;;;;;;34.58;41.75;90667.75;5053939;28;20109;-68
2023/07/01 06:05:09;;;;;;;5.00;1.85;;;;;;;36.20;38.28;90669.38;5054197;28;20052;-68
2023/07/01 06:07:34;;;;;;;1.02;1.02;;;;;;;37.27;36.56;90672.00;5053743;28;20506;-66
2023/07/01 06:09:59;;;;;;;0.95;0.88;;;;;;;38.12;34.61;90671.88;5053883;28;20029;-66
2023/07/01 06:12:25;;;;;;;2.47;1.67;;;;;;;39.23;33.08;90663.16;5053686;28;20033;-66
2023/07/01 06:14:51;;;;;;;2.08;1.88;;;;;;;40.18;31.33;90676.91;5053536;28;20027;-66
2023/07/01 06:17:16;;;;;;;3.00;2.38;;;;;;;38.45;33.30;90670.75;5053842;28;20048;-66
2023/07/01 06:19:42;;;;;;;1.85;1.75;;;;;;;36.54;33.84;90676.31;5053830;28;20025;-66
2023/07/01 06:22:07;;;;;;;2.42;2.10;;;;;;;37.95;33.23;90679.25;5053546;28;20033;-66
2023/07/01 06:24:32;;;;;;;1.30;1.20;;;;;;;36.80;33.99;90675.78;5053505;28;20031;-66
2023/07/01 06:26:58;;;;;;;1.20;1.17;;;;;;;36.68;34.04;90671.25;5053356;28;20037;-67
2023/07/01 06:29:23;;;;;;;2.33;1.00;;;;;;;38.55;32.28;90675.69;5053313;28;20029;-65
2023/07/01 06:31:48;;;;;;;1.75;1.02;;;;;;;39.31;31.56;90674.63;5053370;28;20041;-66
2023/07/01 06:34:16;;;;;;;1.77;1.67;;;;;;;39.17;31.66;90673.50;5053766;28;20024;-66
2023/07/01 06:36:42;;;;;;;1.30;1.15;;;;;;;40.31;30.82;90671.66;5053055;28;20041;-66
2023/07/01 06:39:07;;;;;;;1.73;1.63;;;;;;;39.56;31.45;90667.47;5053214;28;20047;-66
2023/07/01 06:41:33;;;;;;;1.52;1.42;;;;;;;40.31;30.63;90671.66;5053135;28;20111;-66
2023/07/01 06:43:59;;;;;;;2.83;1.95;;;;;;;41.48;29.73;90674.66;5053063;28;20033;-66
2023/07/01 06:46:25;;;;;;;3.05;1.77;;;;;;;41.15;29.04;90678.19;5052917;28;20079;-67
2023/07/01 06:48:51;;;;;;;1.95;1.13;;;;;;;40.81;28.91;90674.59;5052923;28;20028;-66
2023/07/01 06:51:16;;;;;;;3.35;1.80;;;;;;;40.61;29.92;90667.19;5053251;28;20108;-66
2023/07/01 06:53:41;;;;;;;2.25;1.77;;;;;;;40.79;28.92;90668.00;5052923;28;20040;-66
2023/07/01 06:56:07;;;;;;;2.13;1.45;;;;;;;41.78;27.57;90669.28;5052852;28;20060;-66
2023/07/01 06:58:33;;;;;;;8.57;1.00;;;;;;;42.11;27.75;90667.69;5052739;28;20033;-67
2023/07/01 07:00:58;;;;;;;3.75;2.05;;;;;;;42.70;27.44;90663.63;5052855;28;20029;-67
2023/07/01 07:03:24;;;;;;;0.85;0.85;;;;;;;43.48;26.71;90663.13;5051404;28;20025;-67
2023/07/01 07:05:52;;;;;;;10.00;1.80;;;;;;;43.68;27.20;90655.53;5052812;28;20082;-66
2023/07/01 07:08:17;;;;;;;2.15;1.85;;;;;;;42.25;27.70;90655.44;5052699;28;20025;-66
2023/07/01 07:10:43;;;;;;;2.90;2.65;;;;;;;43.29;27.18;90660.19;5052707;28;20036;-66
2023/07/01 07:13:10;;;;;;;1.40;1.30;;;;;;;42.44;26.64;90664.75;5052559;28;20436;-66
2023/07/01 07:15:35;;;;;;;1.73;1.42;;;;;;;42.23;27.34;90663.59;5052414;28;20033;-66
2023/07/01 07:18:01;;;;;;;2.65;1.90;;;;;;;43.83;26.71;90661.53;5052541;28;20029;-66
2023/07/01 07:20:27;;;;;;;1.55;1.45;;;;;;;42.74;25.90;90658.53;5052621;28;20406;-66
2023/07/01 07:22:52;;;;;;;2.40;1.83;;;;;;;39.80;29.48;90649.13;5052329;28;20025;-66
2023/07/01 07:25:18;;;;;;;1.27;1.17;;;;;;;40.32;28.40;90657.22;5051768;28;20483;-65
2023/07/01 07:27:46;;;;;;;1.23;1.13;;;;;;;41.55;27.22;90654.59;5052576;28;20036;-66
2023/07/01 07:30:15;;;;;;;2.38;1.15;;;;;;;41.70;26.85;90648.75;5052331;28;20554;-66
2023/07/01 07:32:42;;;;;;;1.77;1.63;;;;;;;40.99;27.95;90656.63;5052709;28;20029;-66
2023/07/01 07:35:08;;;;;;;1.88;1.40;;;;;;;41.67;27.13;90649.78;5051979;28;20045;-66
2023/07/01 07:37:35;;;;;;;1.40;1.30;;;;;;;41.60;27.38;90655.84;5052075;28;20116;-66
2023/07/01 07:40:04;;;;;;;1.23;1.13;;;;;;;41.20;27.40;90643.94;5052100;28;20037;-66
2023/07/01 07:42:30;;;;;;;1.50;1.30;;;;;;;40.42;28.01;90645.88;5052216;28;20497;-66
2023/07/01 07:44:55;;;;;;;1.05;1.00;;;;;;;42.13;28.14;90646.34;5051937;28;20068;-66
2023/07/01 07:47:21;;;;;;;3.45;1.52;;;;;;;40.24;28.73;90645.03;5050660;28;20045;-66
2023/07/01 07:49:46;;;;;;;4.13;1.70;;;;;;;42.34;27.23;90646.78;5051917;28;20116;-66
2023/07/01 07:52:12;;;;;;;1.58;1.40;;;;;;;43.39;26.87;90646.63;5051973;28;20063;-66
2023/07/01 07:54:37;;;;;;;2.42;1.45;;;;;;;38.59;30.89;90648.41;5052135;28;20127;-66
2023/07/01 07:57:03;;;;;;;5.15;1.83;;;;;;;38.97;31.45;90649.28;5051966;28;20045;-66
2023/07/01 07:59:29;;;;;;;2.15;2.05;;;;;;;38.54;31.31;90640.03;5051933;28;20477;-66
2023/07/01 08:01:56;;;;;;;2.53;2.33;;;;;;;39.72;30.94;90650.09;5051842;28;20037;-66
2023/07/01 08:04:22;;;;;;;2.15;1.48;;;;;;;36.96;32.61;90639.22;5051695;28;20059;-66
2023/07/01 08:06:48;;;;;;;1.60;1.50;;;;;;;37.85;32.06;90641.75;5051758;28;20067;-66
2023/07/01 08:09:14;;;;;;;1.52;1.40;;;;;;;39.55;31.53;90635.31;5051945;28;20529;-66
2023/07/01 08:11:39;;;;;;;7.95;2.08;;;;;;;40.36;30.00;90648.59;5051907;28;20068;-66
2023/07/01 08:14:05;;;;;;;1.42;1.33;;;;;;;41.28;29.62;90644.22;5050252;28;20490;-66
2023/07/01 08:16:32;;;;;;;1.50;1.40;;;;;;;40.37;30.04;90641.75;5051746;28;20102;-66
2023/07/01 08:18:57;;;;;;;1.73;1.33;;;;;;;40.51;32.17;90638.00;5051679;28;20169;-66
2023/07/01 08:21:23;;;;;;;1.30;1.20;;;;;;;39.68;32.44;90632.84;5051712;28;20149;-66
2023/07/01 08:23:49;;;;;;;1.30;1.20;;;;;;;40.96;30.19;90638.09;5052133;28;20037;-66
2023/07/01 08:26:14;;;;;;;2.55;2.35;;;;;;;40.62;28.76;90626.88;5050073;28;20044;-66
2023/07/01 08:28:40;;;;;;;1.85;1.73;;;;;;;39.48;31.20;90628.94;5051502;28;20041;-66
2023/07/01 08:31:05;;;;;;;3.42;1.58;;;;;;;40.24;29.32;90633.09;5051768;28;20477;-66
2023/07/01 08:33:32;;;;;;;2.30;1.70;;;;;;;39.25;31.51;90618.91;5051533;28;20396;-65
2023/07/01 08:35:58;;;;;;;1.92;1.27;;;;;;;37.96;33.67;90616.91;5051481;28;20438;-65
2023/07/01 08:38:23;;;;;;;1.75;1.55;;;;;;;38.87;32.19;90620.88;5055028;28;20033;-66
2023/07/01 08:40:53;;;;;;;1.15;0.90;;;;;;;40.63;29.87;90624.84;5055766;28;20583;-66
2023/07/01 08:43:21;;;;;;;1.73;1.55;;;;;;;42.56;27.79;90617.19;5055705;28;20155;-66
2023/07/01 08:45:50;;;;;;;2.20;1.80;;;;;;;44.03;25.45;90623.84;5055292;28;20041;-66
2023/07/01 08:48:21;;;;;;;2.35;1.80;;;;;;;39.82;30.47;90621.53;5055160;28;20037;-66
2023/07/01 08:51:06;;;;;;;2.88;2.25;;;;;;;42.02;28.74;90626.03;5055450;28;20041;-66
2023/07/01 08:53:32;;;;;;;1.48;1.35;;;;;;;43.47;27.58;90622.38;5055161;28;20049;-66
2023/07/01 08:55:59;;;;;;;1.77;1.13;;;;;;;40.62;28.64;90623.34;5055174;28;20033;-66
2023/07/01 08:58:25;;;;;;;2.00;1.83;;;;;;;39.14;31.35;90624.41;5053778;28;20391;-66
2023/07/01 09:00:51;;;;;;;3.75;1.50;;;;;;;36.11;33.38;90613.28;5055031;28;20059;-66
2023/07/01 09:03:17;;;;;;;1.50;1.40;;;;;;;34.02;36.55;90608.28;5055221;28;20036;-66
2023/07/01 09:05:42;;;;;;;1.27;1.17;;;;;;;30.90;42.11;90611.44;5054945;28;20024;-67
2023/07/01 09:08:08;;;;;;;2.90;1.85;;;;;;;29.88;45.42;90608.63;5054796;28;20166;-67
2023/07/01 09:10:34;;;;;;;2.05;1.38;;;;;;;32.96;40.97;90612.28;5054777;28;20064;-66
2023/07/01 09:13:12;;;;;;;13.70;1.50;;;;;;;35.96;37.35;90614.03;5053767;28;20426;-67
2023/07/01 09:15:43;;;;;;;1.50;1.38;;;;;;;36.79;35.95;90610.44;5054787;28;20059;-67
2023/07/01 09:18:22;;;;;;;2.08;1.88;;;;;;;37.98;34.75;90600.50;5055292;28;20025;-67
2023/07/01 09:20:49;;;;;;;8.43;1.63;;;;;;;38.55;32.93;90597.06;5054926;28;20058;-67
2023/07/01 09:23:30;;;;;;;1.20;1.10;;;;;;;40.30;31.41;90600.44;5054847;28;20036;-67
2023/07/01 09:26:11;;;;;;;1.40;1.30;;;;;;;41.99;29.29;90599.13;5054423;28;20033;-67
2023/07/01 09:28:44;;;;;;;6.13;2.35;;;;;;;42.78;29.19;90589.06;5055447;28;20064;-66
2023/07/01 09:31:12;;;;;;;1.85;1.40;;;;;;;43.57;27.58;90584.34;5054701;28;20033;-67
2023/07/01 09:33:39;;;;;;;1.70;1.60;;;;;;;43.81;27.40;90591.22;5054390;28;20167;-66
2023/07/01 09:36:05;;;;;;;1.35;1.10;;;;;;;42.98;26.71;90585.13;5054049;28;20491;-66
2023/07/01 09:38:32;;;;;;;1.08;1.00;;;;;;;39.73;30.61;90591.09;5054166;28;20047;-66
2023/07/01 09:41:17;;;;;;;1.73;1.63;;;;;;;35.68;34.93;90580.25;5054581;28;20029;-67
2023/07/01 09:43:42;;;;;;;1.33;1.23;;;;;;;34.34;36.41;90570.94;5054420;28;20090;-66
2023/07/01 09:46:08;;;;;;;1.75;1.45;;;;;;;34.66;37.89;90575.00;5054055;28;20100;-66
2023/07/01 09:48:34;;;;;;;1.90;1.67;;;;;;;37.76;35.41;90579.56;5053692;28;20070;-66
2023/07/01 09:51:02;;;;;;;2.05;1.40;;;;;;;36.76;34.54;90564.25;5054257;28;20032;-67
2023/07/01 09:53:32;;;;;;;1.70;1.50;;;;;;;34.56;37.16;90568.75;5054065;28;20043;-67
2023/07/01 09:56:00;;;;;;;1.73;1.40;;;;;;;32.65;40.54;90572.97;5054015;28;20104;-67
2023/07/01 09:58:25;;;;;;;6.03;1.55;;;;;;;32.04;42.32;90563.53;5054062;28;20025;-67
2023/07/01 10:00:51;;;;;;;1.55;1.45;;;;;;;30.95;41.34;90569.69;5053980;28;20035;-67
2023/07/01 10:03:18;;;;;;;1.38;1.27;;;;;;;30.72;43.87;90564.56;5054189;28;20094;-67
2023/07/01 10:05:46;;;;;;;1.15;1.15;;;;;;;30.85;44.29;90559.81;5053981;28;20033;-67
2023/07/01 10:08:12;;;;;;;7.88;2.47;;;;;;;30.17;44.98;90561.19;5053729;28;20021;-67
2023/07/01 10:10:37;;;;;;;2.50;2.25;;;;;;;29.75;44.34;90551.00;5054028;28;20090;-67
2023/07/01 10:13:05;;;;;;;1.58;1.48;;;;;;;31.12;45.17;90551.84;5053665;28;20478;-67
2023/07/01 10:15:33;;;;;;;1.50;1.40;;;;;;;32.36;42.69;90551.34;5053815;28;20108;-67
2023/07/01 10:17:59;;;;;;;1.98;1.50;;;;;;;35.09;38.93;90546.84;5053866;28;20025;-67
2023/07/01 10:20:31;;;;;;;0.93;0.90;;;;;;;36.45;36.62;90551.72;5054092;28;20083;-67
2023/07/01 10:23:02;;;;;;;1.70;1.30;;;;;;;36.62;35.64;90535.34;5053858;28;20380;-67
2023/07/01 10:25:36;;;;;;;1.90;1.55;;;;;;;39.31;35.24;90538.25;5053352;28;20056;-67
2023/07/01 10:28:05;;;;;;;1.33;1.30;;;;;;;41.11;32.29;90543.72;5053543;28;20048;-67
2023/07/01 10:30:46;;;;;;;1.85;1.48;;;;;;;40.51;31.56;90534.84;5053545;28;20025;-67
2023/07/01 10:33:30;;;;;;;5.30;1.50;;;;;;;41.12;30.27;90525.69;5053464;28;20131;-67
2023/07/01 10:36:02;;;;;;;1.90;1.65;;;;;;;40.00;31.90;90534.00;5053069;28;20037;-67
2023/07/01 10:38:30;;;;;;;1.35;1.27;;;;;;;39.00;31.71;90523.13;5053361;28;20094;-67
2023/07/01 10:40:56;;;;;;;1.85;1.10;;;;;;;36.13;35.86;90519.41;5053172;28;20036;-67
2023/07/01 10:43:34;;;;;;;3.28;2.20;;;;;;;33.29;39.16;90518.75;5053071;28;20076;-67
2023/07/01 10:46:23;;;;;;;1.63;1.27;;;;;;;30.80;42.26;90517.22;5051728;28;20399;-67
2023/07/01 10:49:03;;;;;;;1.52;1.42;;;;;;;30.05;43.24;90510.59;5052993;28;20479;-67
2023/07/01 10:51:32;;;;;;;2.55;2.00;;;;;;;29.91;43.03;90511.75;5052970;28;20031;-67
2023/07/01 10:53:59;;;;;;;1.73;1.60;;;;;;;30.42;42.28;90511.75;5052850;28;20479;-67
2023/07/01 10:56:30;;;;;;;1.60;1.50;;;;;;;33.53;39.46;90505.16;5052854;28;20426;-67
2023/07/01 10:59:17;;;;;;;1.30;1.20;;;;;;;34.87;37.23;90513.19;5052423;28;20025;-67
2023/07/01 11:01:56;;;;;;;1.75;1.52;;;;;;;34.76;38.32;90507.41;5052861;28;20592;-67
2023/07/01 11:04:23;;;;;;;1.63;1.52;;;;;;;35.34;40.19;90515.16;5052876;28;20029;-67
2023/07/01 11:06:49;;;;;;;1.77;1.67;;;;;;;34.49;40.00;90514.59;5053154;28;20025;-67
2023/07/01 11:09:16;;;;;;;3.80;1.77;;;;;;;32.73;41.74;90519.91;5052800;28;20033;-67
2023/07/01 11:11:42;;;;;;;9.73;2.20;;;;;;;31.35;45.22;90514.16;5052620;28;20025;-67
2023/07/01 11:14:10;;;;;;;2.00;1.77;;;;;;;30.56;47.43;90511.31;5052485;28;20025;-67
2023/07/01 11:16:38;;;;;;;2.88;1.58;;;;;;;30.32;46.84;90508.16;5052755;28;20094;-66
2023/07/01 11:19:16;;;;;;;2.53;1.88;;;;;;;30.61;47.70;90512.72;5052416;28;20079;-67
2023/07/01 11:21:43;;;;;;;1.58;1.20;;;;;;;30.22;47.21;90505.75;5052534;28;20025;-67
2023/07/01 11:24:09;;;;;;;1.40;1.23;;;;;;;31.62;44.45;90497.84;5052079;28;20514;-67
2023/07/01 11:26:37;;;;;;;1.85;1.50;;;;;;;34.08;41.87;90501.53;5052273;28;20035;-67
2023/07/01 11:29:09;;;;;;;1.80;1.70;;;;;;;35.35;37.49;90505.66;5052508;28;20029;-67